Archival Weather

Granbury Rgnl

Granbury, Texas (KGDJ)

Report from: Monday, January 29, 2024 2:35 AM UTC
Current time: Tuesday, June 18, 2024 1:24 PM UTC

Current weather – Weather history – Daily summaries
Weather forecast

Temperature8.0°C (46.4°F)
Dew point2.3°C (36.1°F)
Winds Calm
Visibility10 mi. (16.1 km)
Clouds Sky clear
Altimeter30.36 in.Hg (1028 mB)
Relative humidity67 %
Density altitude-1,235 ft. (-376 m)
Remarks Fully automated report
Automated weather observing station with precipitation discriminator
Flight conditions Visual Meteorological Conditions
Raw dataKGDJ 290235Z AUTO 00000KT 10SM CLR 08/02 A3036 RMK AO2 T00800023
An error has occurred. This application may no longer respond until reloaded. Reload 🗙